Serra dos Orgaos Teresopo, Brazil
Current Conditions -  °F | °C
As of 6:00 AM on Saturday 22 Nov 2014 (Local Time) from SBGL Reporting Station
Clear Clear  
Wind Chill: 73°   Ceiling: Unl
Heat Index: 73°   Visibility: 6mi
Dew Point: 68°   Wind: 2mph
Humidity: 83%   Direction: 120°ESE
Pressure: 29.85"   Gusts: NA
Location:  22.41°S, 42.97°W
Report Text: SBGL 220800Z 12002KT CAVOK 23/20 Q1011
Loading
Personal Weather Stations






























Interactive Weather Map New forecast layout! Learn more

10-Day Weather Forecast

Advertisements
Track Severe Weather on mobile